Time;durP1;ratioP1;P1;durP2;ratioP2;P2;SDS_P1;SDS_P2;PMS_P1;PMS_P2;Temp;Humidity;BMP_temperature;BMP_pressure;BME280_temperature;BME280_humidity;BME280_pressure;Samples;Min_cycle;Max_cycle;Signal;HPM_P1;HPM_P2
2021/01/26 00:02:01;;;;;;;;;33.60;28.60;;;;;8.55;44.27;97694.69;6186469;28;126752;-60
2021/01/26 00:05:03;;;;;;;;;35.40;30.40;;;;;8.23;44.51;97669.28;6206079;28;127426;-60
2021/01/26 00:08:06;;;;;;;;;34.00;30.00;;;;;8.38;44.72;97704.53;6208741;28;125710;-60
2021/01/26 00:11:07;;;;;;;;;37.00;32.00;;;;;8.45;44.42;97710.63;6192768;28;127602;-60
2021/01/26 00:14:09;;;;;;;;;36.80;31.00;;;;;8.42;44.61;97715.63;6208241;28;125560;-60
2021/01/26 00:17:10;;;;;;;;;33.60;29.60;;;;;8.38;44.55;97720.66;6208120;28;126903;-60
2021/01/26 00:26:07;;;;;;;;;33.00;28.00;;;;;8.38;44.64;97717.97;6209198;28;96365;-60
2021/01/26 05:46:57;;;;;;;;;36.80;31.80;;;;;7.61;47.53;97893.44;6208659;28;97145;-60
2021/01/26 05:49:59;;;;;;;;;32.40;29.00;;;;;7.65;47.33;97906.19;6186624;28;126810;-60
2021/01/26 05:53:11;;;;;;;;;28.60;26.20;;;;;7.64;47.03;97904.53;6206200;28;126520;-61
2021/01/26 05:56:16;;;;;;;;;31.00;26.50;;;;;7.54;46.65;97895.38;6201339;28;124760;-60
2021/01/26 05:59:19;;;;;;;;;33.40;29.00;;;;;7.67;46.84;97906.75;6207041;28;125894;-61
2021/01/26 06:02:22;;;;;;;;;31.00;28.00;;;;;7.71;46.86;97913.34;6206423;28;126820;-61
2021/01/26 06:05:24;;;;;;;;;30.80;29.00;;;;;7.73;46.40;97916.59;6207210;28;124877;-60
2021/01/26 06:08:26;;;;;;;;;31.80;28.80;;;;;7.78;46.09;97916.72;6185870;28;125351;-60
2021/01/26 06:11:31;;;;;;;;;31.25;27.50;;;;;7.75;45.86;97927.91;6198008;28;125332;-60
2021/01/26 06:14:32;;;;;;;;;31.40;29.00;;;;;7.66;45.62;97921.22;6206438;28;124713;-60
2021/01/26 06:17:35;;;;;;;;;32.25;27.75;;;;;7.69;45.57;97926.13;6207045;28;126247;-60
2021/01/26 06:20:38;;;;;;;;;32.20;28.80;;;;;7.69;45.66;97926.13;6206857;28;125637;-60
2021/01/26 06:23:40;;;;;;;;;30.60;28.20;;;;;7.77;45.50;97935.75;6208172;28;124914;-60
2021/01/26 06:27:01;;;;;;;;;28.33;25.00;;;;;7.51;45.57;97891.31;6210182;28;125836;-61
2021/01/26 06:30:15;;;;;;;;;30.25;27.00;;;;;7.75;45.84;97937.81;6178494;28;125940;-61
2021/01/26 06:33:36;;;;;;;;;29.20;25.80;;;;;7.71;46.11;97944.69;6207496;28;126385;-60
2021/01/26 06:37:08;;;;;;;;;35.60;31.60;;;;;7.62;46.51;97956.78;6206463;28;125998;-60
2021/01/26 06:40:15;;;;;;;;;33.00;30.00;;;;;7.51;46.76;97957.53;6211274;28;124640;-60
2021/01/26 06:43:43;;;;;;;;;37.00;32.00;;;;;7.21;46.94;97909.22;6205432;28;126427;-59
2021/01/26 06:47:10;;;;;;;;;37.25;31.75;;;;;7.47;47.00;97967.91;6202967;28;126141;-61
2021/01/26 06:50:22;;;;;;;;;37.00;32.00;;;;;7.46;47.19;97960.88;6210464;28;127029;-60
2021/01/26 06:54:01;;;;;;;;;33.80;30.00;;;;;7.55;47.17;97962.22;6200096;28;127358;-60
2021/01/26 06:57:28;;;;;;;;;34.00;31.00;;;;;7.48;47.23;97963.34;6209297;28;125876;-59
2021/01/26 07:00:37;;;;;;;;;34.75;31.00;;;;;7.48;47.10;97963.34;6201809;28;126302;-59
2021/01/26 07:04:16;;;;;;;;;35.00;29.40;;;;;7.26;47.41;97958.44;6211291;28;127080;-59
2021/01/26 07:07:39;;;;;;;;;33.00;30.00;;;;;7.21;47.44;97965.50;6214880;28;126037;-59
2021/01/26 07:11:01;;;;;;;;;31.00;29.00;;;;;7.29;47.33;97960.66;6209374;28;124734;-59
2021/01/26 07:14:28;;;;;;;;;28.00;26.00;;;;;7.16;47.59;97966.16;6196568;28;124671;-60
2021/01/26 07:17:44;;;;;;;;;30.75;27.75;;;;;7.23;47.42;97972.25;6198032;28;125367;-60
2021/01/26 07:20:51;;;;;;;;;30.00;29.60;;;;;7.45;46.91;97975.34;6209788;28;124777;-60
2021/01/26 07:24:26;;;;;;;;;28.00;27.20;;;;;7.59;46.56;97984.88;6195711;28;123703;-59
2021/01/26 07:28:11;;;;;;;;;30.00;28.75;;;;;7.35;46.15;97916.88;6207764;28;126680;-60
2021/01/26 07:31:20;;;;;;;;;30.40;28.40;;;;;7.78;46.06;97983.81;6209089;28;124603;-61
2021/01/26 07:34:34;;;;;;;;;29.40;27.00;;;;;7.56;45.70;97947.78;6196882;28;126074;-59
2021/01/26 07:37:53;;;;;;;;;35.80;30.00;;;;;7.87;45.72;97986.97;6210092;28;125908;-59
2021/01/26 07:41:08;;;;;;;;;34.80;29.60;;;;;7.76;45.87;97991.28;6210303;28;124749;-61
2021/01/26 07:44:31;;;;;;;;;35.00;30.00;;;;;7.75;46.22;98002.22;6205979;28;125899;-60
2021/01/26 07:47:48;;;;;;;;;30.75;27.00;;;;;7.36;46.43;97955.22;6210014;28;126579;-60
2021/01/26 07:50:54;;;;;;;;;29.60;26.60;;;;;7.72;46.48;97998.09;6212012;28;125837;-61
2021/01/26 07:54:16;;;;;;;;;31.00;26.60;;;;;7.35;46.49;97961.63;6209768;28;124740;-60
2021/01/26 07:57:19;;;;;;;;;30.00;28.00;;;;;7.69;46.74;98005.78;6209528;28;125596;-61
2021/01/26 08:00:24;;;;;;;;;30.80;29.40;;;;;7.73;46.66;98001.63;6208996;28;126047;-59
2021/01/26 08:03:28;;;;;;;;;29.20;27.00;;;;;7.87;46.63;98002.28;6209107;28;125677;-60
2021/01/26 08:06:35;;;;;;;;;28.40;26.40;;;;;7.90;46.51;97997.28;6206415;28;124602;-61
2021/01/26 08:09:43;;;;;;;;;28.50;26.25;;;;;7.96;46.33;98003.63;6191302;28;125718;-60
2021/01/26 08:12:45;;;;;;;;;31.80;27.80;;;;;7.97;46.28;98007.91;6208298;28;123851;-60
2021/01/26 08:15:47;;;;;;;;;32.50;29.50;;;;;7.84;46.12;97966.81;6205490;28;125220;-59
2021/01/26 08:18:49;;;;;;;;;32.00;28.00;;;;;7.89;46.32;98010.91;6209243;28;126748;-60
2021/01/26 08:21:53;;;;;;;;;31.80;29.80;;;;;7.77;46.08;97992.09;6209251;28;128159;-61
2021/01/26 08:25:06;;;;;;;;;33.40;29.40;;;;;7.99;45.95;98000.47;6209295;28;126980;-60
2021/01/26 08:28:56;;;;;;;;;33.00;30.00;;;;;7.96;45.88;98019.72;6208406;28;127593;-60
2021/01/26 08:32:27;;;;;;;;;34.00;30.00;;;;;7.93;45.85;98023.66;6202315;28;127272;-59
2021/01/26 08:35:28;;;;;;;;;33.40;30.00;;;;;7.81;45.99;98025.47;6206458;28;124760;-60
2021/01/26 08:38:53;;;;;;;;;34.40;30.00;;;;;7.77;46.30;98018.94;6195457;28;126444;-60
2021/01/26 08:41:55;;;;;;;;;31.00;29.00;;;;;7.85;45.78;98029.34;6199728;28;124928;-59
2021/01/26 08:44:57;;;;;;;;;32.00;29.00;;;;;7.97;45.58;98046.31;6208779;28;128074;-58
2021/01/26 08:48:05;;;;;;;;;34.00;30.00;;;;;8.01;45.22;98034.09;6206415;28;126271;-59
2021/01/26 08:51:12;;;;;;;;;34.00;32.00;;;;;8.09;45.22;98041.84;6207084;28;125255;-61
2021/01/26 08:54:36;;;;;;;;;35.00;30.00;;;;;8.30;44.78;98043.25;6207958;28;127135;-59
2021/01/26 08:57:42;;;;;;;;;36.80;32.00;;;;;8.37;44.63;98053.88;6207821;28;124734;-60
2021/01/26 09:00:48;;;;;;;;;35.40;32.00;;;;;8.39;44.52;98049.13;6206121;28;123974;-59
2021/01/26 09:03:57;;;;;;;;;34.40;30.40;;;;;8.56;44.26;98053.59;6207937;28;126539;-60
2021/01/26 09:06:58;;;;;;;;;31.60;27.00;;;;;8.65;44.10;98062.16;6177781;28;124651;-59
2021/01/26 09:10:00;;;;;;;;;33.00;28.40;;;;;8.68;43.88;98057.16;6208236;28;125297;-59
2021/01/26 09:13:37;;;;;;;;;29.50;27.50;;;;;8.90;43.49;98062.78;6208421;28;126207;-61
2021/01/26 09:16:41;;;;;;;;;30.33;27.67;;;;;8.84;43.52;98079.03;6163992;28;126685;-61
2021/01/26 09:19:48;;;;;;;;;32.00;28.00;;;;;8.85;43.70;98070.72;6189371;28;126093;-61
2021/01/26 09:22:49;;;;;;;;;36.60;31.00;;;;;8.75;44.05;98069.69;6183697;28;127724;-60
2021/01/26 09:25:51;;;;;;;;;34.80;31.00;;;;;8.81;44.25;98080.31;6182582;28;124124;-59
2021/01/26 09:28:53;;;;;;;;;36.00;30.00;;;;;8.61;44.09;98032.25;6190056;28;125170;-61
2021/01/26 09:31:56;;;;;;;;;37.50;32.00;;;;;8.88;44.24;98091.78;6206148;28;125810;-60
2021/01/26 09:35:27;;;;;;;;;36.25;31.75;;;;;8.86;44.67;98082.31;6206282;28;125254;-62
2021/01/26 09:38:34;;;;;;;;;40.50;32.00;;;;;8.73;44.96;98093.25;6227401;28;126860;-58
2021/01/26 09:41:37;;;;;;;;;37.00;31.80;;;;;8.78;45.09;98098.78;6182019;28;127862;-59
2021/01/26 09:44:38;;;;;;;;;34.00;30.00;;;;;8.69;45.52;98093.72;6182837;28;124193;-60
2021/01/26 09:47:40;;;;;;;;;33.00;29.60;;;;;8.64;45.73;98087.41;6182607;28;126800;-60
2021/01/26 09:50:41;;;;;;;;;34.40;30.40;;;;;8.64;46.18;98093.59;6203731;28;125454;-60
2021/01/26 09:53:45;;;;;;;;;36.50;32.00;;;;;8.59;45.92;98093.47;6202386;28;125370;-61
2021/01/26 09:56:48;;;;;;;;;33.67;31.00;;;;;8.66;46.26;98101.41;6187474;28;126423;-61
2021/01/26 09:59:51;;;;;;;;;37.00;31.60;;;;;8.32;46.18;98070.69;6187302;28;124302;-61
2021/01/26 10:02:56;;;;;;;;;33.60;30.60;;;;;8.39;46.29;98103.66;6179628;28;126731;-60
2021/01/26 10:06:01;;;;;;;;;32.20;27.40;;;;;8.37;46.42;98100.34;6194960;28;126121;-60
2021/01/26 10:09:29;;;;;;;;;31.75;30.00;;;;;8.46;46.20;98106.22;6188645;28;126156;-59
2021/01/26 10:12:38;;;;;;;;;35.00;30.00;;;;;8.22;46.15;98075.72;6188526;28;125251;-60
2021/01/26 10:15:40;;;;;;;;;32.40;30.00;;;;;8.63;45.60;98100.00;6187268;28;126951;-59
2021/01/26 10:18:41;;;;;;;;;32.20;29.00;;;;;9.97;43.71;98088.41;6187778;28;125227;-61
2021/01/26 10:21:44;;;;;;;;;33.00;29.00;;;;;9.89;41.92;98061.88;6187408;28;127832;-60
2021/01/26 10:24:46;;;;;;;;;32.40;30.00;;;;;10.23;41.76;98105.13;6204461;28;126182;-61
2021/01/26 10:27:48;;;;;;;;;32.40;29.20;;;;;10.05;41.72;98108.78;6199194;28;127882;-61
2021/01/26 10:30:50;;;;;;;;;31.00;28.00;;;;;10.12;41.68;98111.31;6186307;28;126116;-61
2021/01/26 10:33:51;;;;;;;;;30.40;27.20;;;;;9.97;41.41;98085.72;6187442;28;126795;-59
2021/01/26 10:36:54;;;;;;;;;35.40;29.40;;;;;10.59;40.80;98109.38;6193432;28;125144;-61
2021/01/26 10:40:13;;;;;;;;;30.25;27.50;;;;;11.08;39.45;98108.66;6226060;28;126411;-60
2021/01/26 10:43:26;;;;;;;;;29.50;26.00;;;;;11.41;38.40;98088.13;6217712;28;123044;-59
2021/01/26 10:46:33;;;;;;;;;31.00;27.60;;;;;12.17;37.10;98100.06;6208486;28;125006;-62
2021/01/26 10:49:36;;;;;;;;;37.00;31.40;;;;;12.75;36.04;98097.50;6169358;28;125985;-60
2021/01/26 10:52:46;;;;;;;;;30.00;27.00;;;;;12.64;35.71;98090.34;6205519;28;125119;-59
2021/01/26 10:55:47;;;;;;;;;32.20;28.00;;;;;12.26;35.74;98087.72;6210092;28;126468;-61
2021/01/26 10:58:49;;;;;;;;;26.33;25.33;;;;;11.70;36.29;98103.16;6191495;28;125863;-61
2021/01/26 11:01:51;;;;;;;;;36.20;30.60;;;;;11.30;37.18;98106.84;6209479;28;126432;-60
2021/01/26 11:04:53;;;;;;;;;31.80;27.40;;;;;10.66;38.45;98107.31;6209971;28;125385;-62
2021/01/26 11:07:55;;;;;;;;;32.00;28.60;;;;;10.43;39.44;98109.06;6193175;28;125383;-62
2021/01/26 11:10:56;;;;;;;;;31.60;27.00;;;;;10.21;40.10;98101.88;6209118;28;125659;-61
2021/01/26 11:14:00;;;;;;;;;29.60;28.00;;;;;9.89;40.69;98104.94;6210129;28;126135;-61
2021/01/26 11:17:01;;;;;;;;;29.40;25.40;;;;;9.71;41.11;98106.94;6209553;28;125143;-60
2021/01/26 11:20:05;;;;;;;;;34.20;30.00;;;;;9.74;41.33;98106.47;6210291;28;126120;-60
2021/01/26 11:23:08;;;;;;;;;31.00;28.40;;;;;9.38;41.17;98102.16;6209486;28;125454;-61
2021/01/26 11:26:12;;;;;;;;;31.40;29.00;;;;;9.36;41.55;98070.09;6193367;28;125368;-60
2021/01/26 11:29:14;;;;;;;;;29.00;25.25;;;;;9.23;41.73;98088.34;6211289;28;127455;-61
2021/01/26 11:32:18;;;;;;;;;28.00;26.00;;;;;9.39;41.52;98106.47;6208780;28;126643;-60
2021/01/26 11:35:23;;;;;;;;;30.50;26.00;;;;;9.16;41.42;98075.00;6183820;28;125670;-61
2021/01/26 11:38:25;;;;;;;;;29.00;26.60;;;;;9.28;41.69;98101.91;6196221;28;125234;-60
2021/01/26 11:41:27;;;;;;;;;26.00;24.00;;;;;9.15;42.03;98102.94;6205576;28;125217;-60
2021/01/26 11:44:28;;;;;;;;;28.25;26.25;;;;;9.16;42.32;98104.59;6209940;28;125371;-59
2021/01/26 11:47:33;;;;;;;;;29.00;25.00;;;;;9.23;42.05;98099.09;6184981;28;125123;-59
2021/01/26 11:50:38;;;;;;;;;24.80;21.80;;;;;9.24;42.24;98088.09;6205165;28;127114;-59
2021/01/26 11:53:40;;;;;;;;;23.20;21.20;;;;;9.75;41.68;98086.59;6210169;28;126458;-61
2021/01/26 11:56:41;;;;;;;;;26.00;23.00;;;;;10.03;40.84;98102.81;6208764;28;125734;-60
2021/01/26 11:59:42;;;;;;;;;25.80;24.40;;;;;10.22;40.40;98096.22;6211166;28;128470;-59
2021/01/26 12:02:44;;;;;;;;;27.25;23.00;;;;;10.88;39.30;98099.38;6209270;28;125065;-59
2021/01/26 12:05:46;;;;;;;;;23.00;20.75;;;;;11.46;38.11;98085.50;6209656;28;127955;-60
2021/01/26 12:08:49;;;;;;;;;26.60;24.40;;;;;12.37;37.25;98084.88;6209521;28;125350;-61
2021/01/26 12:11:50;;;;;;;;;25.00;23.00;;;;;12.87;35.66;98086.50;6197625;28;124332;-62
2021/01/26 12:14:52;;;;;;;;;25.00;22.50;;;;;12.71;35.77;98092.81;6209142;28;125399;-60
2021/01/26 12:17:53;;;;;;;;;24.40;22.00;;;;;12.38;35.94;98094.63;6202179;28;126485;-61
2021/01/26 12:20:55;;;;;;;;;22.60;19.00;;;;;12.17;36.66;98092.75;6205464;28;125214;-63
2021/01/26 12:23:56;;;;;;;;;24.00;22.00;;;;;12.01;36.59;98094.44;6189846;28;127236;-63
2021/01/26 12:26:58;;;;;;;;;21.60;20.00;;;;;11.81;36.74;98094.16;6221292;28;126674;-61
2021/01/26 12:29:59;;;;;;;;;23.00;20.00;;;;;11.91;36.46;98101.59;6211810;28;125495;-60
2021/01/26 12:33:02;;;;;;;;;22.20;20.00;;;;;11.70;36.70;98047.25;6214108;28;126184;-61
2021/01/26 12:36:04;;;;;;;;;24.40;20.80;;;;;12.12;36.65;98104.31;6182649;28;125540;-61
2021/01/26 12:39:06;;;;;;;;;22.50;20.50;;;;;11.75;36.69;98105.94;6206295;28;128580;-59
2021/01/26 12:42:07;;;;;;;;;24.50;21.25;;;;;11.52;36.82;98098.84;6206051;28;127815;-59
2021/01/26 12:45:11;;;;;;;;;22.60;19.80;;;;;10.98;37.46;98088.78;6206382;28;124476;-60
2021/01/26 12:48:12;;;;;;;;;21.60;20.00;;;;;10.99;38.24;98093.94;6205650;28;126639;-59
2021/01/26 12:51:16;;;;;;;;;26.50;23.00;;;;;10.75;38.84;98100.50;6207117;28;125964;-59
2021/01/26 12:54:19;;;;;;;;;28.20;23.40;;;;;10.64;38.70;98088.72;6207292;28;127090;-59
2021/01/26 12:57:21;;;;;;;;;25.00;22.00;;;;;10.54;39.41;98098.47;6207774;28;127244;-60
2021/01/26 13:00:24;;;;;;;;;24.00;22.80;;;;;10.28;39.74;98107.94;6207377;28;125455;-60
2021/01/26 13:03:26;;;;;;;;;25.80;24.00;;;;;10.23;40.06;98108.66;6207538;28;126255;-61
2021/01/26 13:06:28;;;;;;;;;25.80;23.00;;;;;9.73;40.64;98061.75;6207476;28;125873;-60
2021/01/26 13:09:30;;;;;;;;;27.00;23.00;;;;;9.81;40.88;98099.94;6165525;28;125389;-58
2021/01/26 13:12:32;;;;;;;;;27.20;23.60;;;;;9.62;41.11;98098.41;6198165;28;124947;-58
2021/01/26 13:15:33;;;;;;;;;26.00;22.00;;;;;9.69;41.64;98123.31;6208295;28;126446;-60
2021/01/26 13:18:35;;;;;;;;;23.80;21.80;;;;;9.57;42.07;98128.72;6206965;28;127297;-59
2021/01/26 13:21:37;;;;;;;;;23.33;22.33;;;;;9.34;42.16;98107.16;6207852;28;124342;-60
2021/01/26 13:24:38;;;;;;;;;25.80;24.00;;;;;9.17;42.51;98102.72;6208200;28;126489;-61
2021/01/26 13:27:39;;;;;;;;;27.67;25.00;;;;;9.27;42.53;98119.91;6208360;28;125717;-60
2021/01/26 13:30:42;;;;;;;;;24.40;23.40;;;;;9.05;42.71;98132.25;6207421;28;126508;-60
2021/01/26 13:33:43;;;;;;;;;26.40;24.40;;;;;9.12;42.54;98117.69;6207752;28;128112;-60
2021/01/26 13:36:45;;;;;;;;;27.00;25.00;;;;;8.85;42.84;98105.66;6207628;28;127659;-60
2021/01/26 13:39:47;;;;;;;;;25.60;24.00;;;;;9.12;42.68;98128.44;6208470;28;126726;-60
2021/01/26 13:42:49;;;;;;;;;26.50;24.00;;;;;9.05;43.19;98124.19;6206958;28;126673;-59
2021/01/26 13:45:51;;;;;;;;;23.80;22.80;;;;;8.92;42.83;98116.34;6207447;28;97488;-60
2021/01/26 13:48:54;;;;;;;;;24.00;23.00;;;;;8.84;42.97;98117.50;6205972;28;126802;-60
2021/01/26 13:51:57;;;;;;;;;27.00;24.00;;;;;8.71;42.95;98096.16;6203291;28;125569;-59
2021/01/26 13:54:58;;;;;;;;;24.40;23.40;;;;;9.16;42.57;98117.19;6204827;28;126395;-61
2021/01/26 13:58:00;;;;;;;;;26.40;24.40;;;;;9.36;42.15;98121.22;6205318;28;126828;-61
2021/01/26 14:01:02;;;;;;;;;27.50;23.75;;;;;9.25;41.76;98119.31;6204751;28;124392;-62
2021/01/26 14:04:04;;;;;;;;;27.00;25.75;;;;;9.50;40.86;98128.00;6204520;28;126314;-62
2021/01/26 14:07:06;;;;;;;;;28.00;25.40;;;;;9.56;40.45;98113.63;6203910;28;127920;-60
2021/01/26 14:10:09;;;;;;;;;30.60;26.60;;;;;9.33;40.64;98121.69;6205332;28;127958;-61
2021/01/26 14:13:10;;;;;;;;;30.00;27.00;;;;;9.50;40.72;98124.50;6205242;28;126731;-60
2021/01/26 14:16:11;;;;;;;;;29.50;27.50;;;;;9.41;40.98;98126.72;6187066;28;125580;-60
2021/01/26 14:19:14;;;;;;;;;27.60;25.20;;;;;9.24;41.14;98127.63;6205005;28;126549;-61
2021/01/26 14:22:16;;;;;;;;;31.00;26.00;;;;;9.01;41.50;98129.22;6206412;28;127976;-59
2021/01/26 14:25:18;;;;;;;;;29.00;28.00;;;;;9.01;41.84;98131.09;6204538;28;126214;-60
2021/01/26 14:28:20;;;;;;;;;31.00;30.00;;;;;9.13;41.84;98127.38;6205811;28;127318;-61
2021/01/26 14:31:22;;;;;;;;;29.00;26.67;;;;;9.21;41.64;98117.31;6204513;28;125458;-60
2021/01/26 14:34:23;;;;;;;;;30.60;27.60;;;;;9.00;41.36;98097.19;6187915;28;125228;-60
2021/01/26 14:37:25;;;;;;;;;27.00;25.40;;;;;9.30;41.31;98138.28;6204037;28;125557;-61
2021/01/26 14:40:29;;;;;;;;;27.20;25.20;;;;;9.45;40.84;98125.19;6204874;28;127256;-60
2021/01/26 14:43:32;;;;;;;;;29.00;25.00;;;;;9.21;40.96;98136.97;6205864;28;127150;-60
2021/01/26 14:46:38;;;;;;;;;28.75;24.00;;;;;8.69;41.36;98101.78;6207359;28;124824;-60
2021/01/26 14:49:40;;;;;;;;;27.20;23.00;;;;;8.48;41.82;98110.34;6206734;28;124979;-59
2021/01/26 14:52:41;;;;;;;;;26.60;25.00;;;;;8.51;42.14;98136.75;6208711;28;125309;-60
2021/01/26 14:55:42;;;;;;;;;28.00;24.75;;;;;8.35;42.30;98110.53;6209461;28;127140;-59
2021/01/26 14:58:44;;;;;;;;;24.60;22.00;;;;;8.33;45.61;98146.69;6209358;28;126557;-59
2021/01/26 15:01:46;;;;;;;;;23.40;21.00;;;;;8.36;46.26;98140.88;6209074;28;124788;-60
2021/01/26 15:04:48;;;;;;;;;25.00;23.00;;;;;8.39;42.88;98146.63;6188427;28;125040;-61
2021/01/26 15:07:50;;;;;;;;;28.00;25.75;;;;;8.26;42.72;98152.91;6207913;28;125337;-61
2021/01/26 15:10:51;;;;;;;;;28.40;27.00;;;;;8.14;43.02;98164.66;6195662;28;125185;-62
2021/01/26 15:13:53;;;;;;;;;25.20;22.60;;;;;8.13;43.09;98161.13;6207932;28;125358;-60
2021/01/26 15:16:54;;;;;;;;;25.50;23.50;;;;;8.06;42.93;98175.69;6208270;28;126417;-61
2021/01/26 15:19:59;;;;;;;;;27.50;26.00;;;;;7.99;43.48;98180.28;6207977;28;125268;-61
2021/01/26 15:23:03;;;;;;;;;29.40;27.40;;;;;7.59;43.67;98142.28;6206641;28;126097;-61
2021/01/26 15:26:05;;;;;;;;;30.00;27.00;;;;;7.95;43.64;98182.63;6207670;28;124466;-61
2021/01/26 15:29:06;;;;;;;;;28.80;27.00;;;;;7.94;43.61;98180.97;6206207;28;126489;-61
2021/01/26 15:32:08;;;;;;;;;31.50;27.50;;;;;7.71;43.52;98157.47;6207521;28;126729;-61
2021/01/26 15:35:10;;;;;;;;;32.25;29.00;;;;;7.86;43.79;98186.63;6208741;28;126528;-61
2021/01/26 15:38:12;;;;;;;;;29.60;27.60;;;;;7.87;43.82;98190.94;6187280;28;127436;-61
2021/01/26 15:41:13;;;;;;;;;32.25;28.25;;;;;7.88;44.26;98197.13;6208174;28;127024;-61
2021/01/26 15:44:15;;;;;;;;;30.00;27.00;;;;;7.88;43.91;98197.94;6208831;28;127684;-61
2021/01/26 15:47:18;;;;;;;;;31.00;27.00;;;;;7.92;43.84;98193.78;6207457;28;128490;-62
2021/01/26 15:50:22;;;;;;;;;28.80;26.00;;;;;7.94;43.83;98198.94;6208648;28;125574;-61
2021/01/26 15:53:24;;;;;;;;;32.80;29.40;;;;;7.87;44.16;98201.66;6207129;28;126091;-61
2021/01/26 15:56:28;;;;;;;;;36.00;30.00;;;;;7.97;43.73;98196.63;6206318;28;124870;-61
2021/01/26 15:59:29;;;;;;;;;35.00;30.40;;;;;7.94;43.78;98199.75;6208998;28;125231;-61
2021/01/26 16:02:31;;;;;;;;;31.00;29.40;;;;;7.71;43.59;98153.97;6194824;28;127931;-61
2021/01/26 16:05:32;;;;;;;;;36.00;30.00;;;;;7.83;43.69;98162.91;6193896;28;126003;-61
2021/01/26 16:08:34;;;;;;;;;36.60;31.00;;;;;7.99;43.57;98201.78;6212925;28;127531;-61
2021/01/26 16:11:35;;;;;;;;;34.33;30.00;;;;;8.07;43.69;98212.22;6195038;28;126421;-61
2021/01/26 16:14:36;;;;;;;;;33.80;30.80;;;;;7.90;44.07;98187.00;6211103;28;125298;-61
2021/01/26 16:17:39;;;;;;;;;34.00;31.75;;;;;7.63;44.63;98171.13;6208655;28;127965;-61
2021/01/26 16:20:40;;;;;;;;;38.20;32.00;;;;;7.76;44.38;98178.25;6208642;28;125148;-60
2021/01/26 16:23:42;;;;;;;;;39.00;31.00;;;;;7.90;44.47;98206.59;6207593;28;126562;-61
2021/01/26 16:26:45;;;;;;;;;37.00;32.00;;;;;7.93;44.04;98200.78;6187545;28;126356;-60
2021/01/26 16:29:50;;;;;;;;;35.40;31.80;;;;;7.71;43.88;98175.41;6190504;28;125972;-60
2021/01/26 16:32:51;;;;;;;;;34.80;32.00;;;;;7.61;44.08;98154.47;6185494;28;123392;-61
2021/01/26 16:35:55;;;;;;;;;40.00;33.00;;;;;7.99;43.84;98199.91;6192552;28;127646;-59
2021/01/26 16:38:56;;;;;;;;;37.00;32.00;;;;;8.04;43.76;98208.13;6191173;28;125887;-60
2021/01/26 16:41:58;;;;;;;;;34.00;30.00;;;;;7.98;43.91;98213.53;6210193;28;125054;-60
2021/01/26 16:45:00;;;;;;;;;34.60;30.60;;;;;7.92;44.11;98206.38;6210016;28;127105;-61
2021/01/26 16:48:02;;;;;;;;;37.00;32.00;;;;;7.95;43.93;98209.44;6193891;28;125594;-61
2021/01/26 16:51:04;;;;;;;;;37.00;31.40;;;;;7.79;44.16;98189.38;6213421;28;125127;-61
2021/01/26 16:54:06;;;;;;;;;35.00;30.00;;;;;7.81;44.05;98202.56;6212661;28;125056;-60
2021/01/26 16:57:08;;;;;;;;;36.60;31.40;;;;;7.34;44.30;98159.22;6160018;28;123578;-62
2021/01/26 17:00:14;;;;;;;;;38.50;31.50;;;;;7.43;44.40;98173.16;6207539;28;126846;-61
2021/01/26 17:03:35;;;;;;;;;37.00;31.75;;;;;7.69;44.60;98215.88;6198535;28;126071;-61
2021/01/26 17:06:37;;;;;;;;;37.40;32.00;;;;;7.71;44.42;98221.03;6204174;28;126319;-62
2021/01/26 17:09:38;;;;;;;;;38.60;32.00;;;;;7.70;44.41;98211.31;6206523;28;125538;-60
2021/01/26 17:12:39;;;;;;;;;37.00;32.00;;;;;7.67;44.38;98220.63;6204513;28;127439;-60
2021/01/26 17:15:42;;;;;;;;;37.25;33.00;;;;;7.70;44.45;98220.19;6205003;28;126856;-61
2021/01/26 17:18:44;;;;;;;;;38.40;33.00;;;;;7.41;44.62;98183.31;6205333;28;125861;-60
2021/01/26 17:21:45;;;;;;;;;42.00;32.00;;;;;7.37;44.41;98185.63;6204887;28;127435;-60
2021/01/26 17:24:47;;;;;;;;;33.50;30.00;;;;;7.69;44.31;98231.16;6203263;28;128310;-61
2021/01/26 17:27:48;;;;;;;;;44.00;35.40;;;;;7.70;44.42;98230.09;6205803;28;127783;-61
2021/01/26 17:30:51;;;;;;;;;42.60;35.00;;;;;7.68;44.49;98224.94;6205406;28;127737;-61
2021/01/26 17:33:59;;;;;;;;;45.00;35.00;;;;;7.61;44.52;98226.06;6204962;28;125051;-61
2021/01/26 17:37:05;;;;;;;;;45.00;36.00;;;;;7.54;44.72;98242.19;6205338;28;124834;-60
2021/01/26 17:40:08;;;;;;;;;47.00;38.00;;;;;7.48;44.77;98235.00;6203484;28;125238;-61
2021/01/26 17:43:11;;;;;;;;;45.40;37.40;;;;;7.40;45.04;98228.06;6204743;28;126059;-60
2021/01/26 17:46:12;;;;;;;;;46.40;37.00;;;;;7.40;44.89;98228.06;6195294;28;126325;-61
2021/01/26 17:49:15;;;;;;;;;52.00;40.40;;;;;7.19;45.15;98227.59;6203849;28;126238;-60
2021/01/26 17:52:17;;;;;;;;;49.00;39.40;;;;;7.31;45.05;98225.88;6189046;28;124908;-60
2021/01/26 17:55:20;;;;;;;;;47.00;38.00;;;;;7.22;45.25;98219.97;6195752;28;125328;-59
2021/01/26 17:58:22;;;;;;;;;48.00;39.00;;;;;7.23;45.10;98231.50;6202401;28;126441;-59
2021/01/26 18:01:23;;;;;;;;;47.25;38.25;;;;;7.15;45.61;98237.94;6183483;28;125407;-58
2021/01/26 18:04:26;;;;;;;;;49.00;38.00;;;;;7.12;45.00;98218.78;6202571;28;126894;-59
2021/01/26 18:07:28;;;;;;;;;49.00;39.00;;;;;7.03;45.42;98236.97;6202485;28;126755;-61
2021/01/26 18:10:31;;;;;;;;;46.00;38.25;;;;;7.15;45.44;98239.78;6188470;28;127669;-58
2021/01/26 18:13:32;;;;;;;;;49.00;40.60;;;;;7.11;45.22;98238.56;6203053;28;126844;-62
2021/01/26 18:16:34;;;;;;;;;50.00;38.00;;;;;6.82;45.27;98200.59;6202564;28;126719;-63
2021/01/26 18:19:37;;;;;;;;;50.00;38.00;;;;;6.58;45.39;98163.03;6206267;28;126718;-60
2021/01/26 18:22:40;;;;;;;;;48.25;39.00;;;;;6.67;45.33;98196.56;6206785;28;125925;-61
2021/01/26 18:25:41;;;;;;;;;47.00;38.00;;;;;7.07;45.31;98248.09;6189839;28;125017;-61
2021/01/26 18:28:43;;;;;;;;;50.00;39.00;;;;;7.00;45.52;98255.31;6205629;28;125839;-62
2021/01/26 18:31:44;;;;;;;;;49.00;39.00;;;;;7.15;45.23;98269.28;6206736;28;126432;-60
2021/01/26 18:34:47;;;;;;;;;47.50;39.00;;;;;6.83;44.82;98206.78;6206792;28;127325;-60
2021/01/26 18:37:48;;;;;;;;;49.00;40.00;;;;;7.26;44.77;98260.56;6205554;28;126986;-61
2021/01/26 18:40:50;;;;;;;;;46.60;38.00;;;;;7.30;44.63;98261.75;6189624;28;124464;-61
2021/01/26 18:43:52;;;;;;;;;51.00;40.00;;;;;7.28;44.65;98258.50;6198063;28;127276;-61
2021/01/26 18:46:55;;;;;;;;;48.60;39.00;;;;;7.30;44.27;98253.72;6188858;28;126353;-61
2021/01/26 18:49:57;;;;;;;;;49.20;40.20;;;;;7.40;43.91;98248.69;6207472;28;127317;-61
2021/01/26 18:52:58;;;;;;;;;47.00;38.00;;;;;7.14;43.98;98219.38;6206489;28;125392;-61
2021/01/26 18:56:01;;;;;;;;;47.00;38.00;;;;;7.30;43.68;98251.03;6212032;28;126318;-62
2021/01/26 18:59:03;;;;;;;;;46.75;38.00;;;;;7.18;43.31;98252.78;6205563;28;126159;-61
2021/01/26 19:02:08;;;;;;;;;47.00;38.00;;;;;7.13;43.54;98263.31;6205891;28;126125;-61
2021/01/26 19:05:12;;;;;;;;;48.40;36.60;;;;;7.01;43.14;98233.69;6205614;28;124768;-60
2021/01/26 19:08:13;;;;;;;;;47.00;36.00;;;;;7.23;42.85;98261.00;6187629;28;125871;-61
2021/01/26 19:11:16;;;;;;;;;46.00;37.00;;;;;7.15;42.67;98248.66;6206554;28;126530;-60
2021/01/26 19:14:17;;;;;;;;;42.80;36.00;;;;;7.05;42.50;98234.06;6205362;28;126488;-61
2021/01/26 19:17:19;;;;;;;;;44.00;33.60;;;;;7.35;42.25;98280.69;6206473;28;125218;-61
2021/01/26 19:20:21;;;;;;;;;44.25;35.50;;;;;7.31;42.15;98274.97;6205519;28;126449;-61
2021/01/26 19:23:23;;;;;;;;;44.25;33.00;;;;;7.30;41.97;98277.84;6204999;28;125680;-61
2021/01/26 19:26:25;;;;;;;;;41.00;33.40;;;;;7.28;41.80;98282.63;6204837;28;127177;-60
2021/01/26 19:29:27;;;;;;;;;38.60;33.00;;;;;7.32;41.66;98281.97;6204150;28;126762;-61
2021/01/26 19:32:29;;;;;;;;;35.60;31.60;;;;;7.14;41.42;98255.03;6179063;28;128499;-61
2021/01/26 19:35:32;;;;;;;;;36.60;32.00;;;;;7.52;41.15;98289.88;6205544;28;126231;-61